Time;durP1;ratioP1;P1;durP2;ratioP2;P2;SDS_P1;SDS_P2;PMS_P1;PMS_P2;Temp;Humidity;BMP_temperature;BMP_pressure;BME280_temperature;BME280_humidity;BME280_pressure;Samples;Min_cycle;Max_cycle;Signal;HPM_P1;HPM_P2
2022/07/17 00:00:56;;;;;;;8.05;4.03;;;;;;;23.64;38.31;92941.66;4786373;29;20464;-74
2022/07/17 00:03:21;;;;;;;10.10;4.25;;;;;;;23.82;38.20;92942.78;4786235;30;20051;-74
2022/07/17 00:05:47;;;;;;;6.07;3.88;;;;;;;23.68;39.33;92947.84;4787171;29;20030;-75
2022/07/17 00:08:13;;;;;;;8.63;4.43;;;;;;;23.57;40.43;92941.56;4770124;30;20043;-75
2022/07/17 00:10:41;;;;;;;10.70;4.55;;;;;;;23.48;41.26;92958.59;4786099;29;20049;-75
2022/07/17 00:13:08;;;;;;;9.90;4.90;;;;;;;23.39;42.27;92946.59;4769577;30;20118;-75
2022/07/17 00:15:34;;;;;;;10.50;5.18;;;;;;;23.32;43.20;92952.56;4756142;30;20116;-74
2022/07/17 00:18:00;;;;;;;9.93;5.10;;;;;;;23.32;44.44;92952.56;4755390;30;20043;-75
2022/07/17 00:20:27;;;;;;;11.30;5.65;;;;;;;23.29;45.02;92963.97;4785691;29;20055;-74
2022/07/17 00:22:54;;;;;;;8.90;5.60;;;;;;;23.24;46.05;92958.94;4769971;30;20051;-74
2022/07/17 00:25:19;;;;;;;10.18;5.93;;;;;;;23.24;47.70;92956.25;4786947;29;20049;-75
2022/07/17 00:27:45;;;;;;;8.93;5.70;;;;;;;23.13;47.31;92960.63;4769590;30;20035;-74
2022/07/17 00:30:12;;;;;;;8.02;5.55;;;;;;;23.06;47.61;92962.03;4769689;30;20043;-74
2022/07/17 00:32:39;;;;;;;11.82;5.90;;;;;;;23.00;47.84;92968.78;4786375;29;20043;-75
2022/07/17 00:35:05;;;;;;;8.63;5.85;;;;;;;22.90;48.40;92968.53;4784706;30;20099;-75
2022/07/17 00:37:30;;;;;;;9.70;5.80;;;;;;;22.81;48.12;92966.09;4770356;29;20126;-75
2022/07/17 00:39:56;;;;;;;10.70;5.90;;;;;;;22.72;48.50;92970.84;4769847;30;20521;-75
2022/07/17 00:42:21;;;;;;;11.75;5.57;;;;;;;22.65;48.15;92969.59;4771654;29;20047;-75
2022/07/17 00:44:47;;;;;;;8.73;5.40;;;;;;;22.60;46.98;92975.19;4786985;29;20041;-75
2022/07/17 00:47:18;;;;;;;8.73;4.78;;;;;;;22.56;46.41;92977.03;4802317;29;20039;-74
2022/07/17 00:49:44;;;;;;;11.25;5.10;;;;;;;22.57;44.71;92977.78;4803850;29;20159;-74
2022/07/17 00:52:12;;;;;;;10.80;5.07;;;;;;;22.61;43.47;92979.41;4784072;29;20172;-74
2022/07/17 00:54:39;;;;;;;8.55;5.10;;;;;;;22.62;43.07;92985.50;4785698;30;20062;-75
2022/07/17 00:57:10;;;;;;;8.50;5.20;;;;;;;22.68;44.22;92992.13;4786604;29;20035;-74
2022/07/17 00:59:37;;;;;;;10.98;5.63;;;;;;;22.65;44.19;92980.25;4785728;30;20088;-74
2022/07/17 01:02:04;;;;;;;8.38;5.13;;;;;;;22.60;44.25;92983.19;4799383;29;20045;-74
2022/07/17 01:04:31;;;;;;;7.20;4.78;;;;;;;22.57;43.95;92985.78;4756921;30;20163;-75
2022/07/17 01:06:57;;;;;;;9.10;5.20;;;;;;;22.54;43.54;92984.59;4769495;29;20208;-73
2022/07/17 01:09:23;;;;;;;9.82;5.25;;;;;;;22.52;43.41;92983.41;4786792;29;20043;-74
2022/07/17 01:11:49;;;;;;;8.15;5.13;;;;;;;22.46;43.42;92977.56;4803425;29;20053;-74
2022/07/17 01:14:15;;;;;;;7.65;4.75;;;;;;;22.44;42.80;92985.88;4784495;29;20051;-75
2022/07/17 01:16:41;;;;;;;10.20;4.60;;;;;;;22.43;42.29;92984.34;4787227;29;20035;-74
2022/07/17 01:19:07;;;;;;;10.30;4.75;;;;;;;22.40;42.47;92981.59;4802197;29;20065;-74
2022/07/17 01:21:44;;;;;;;10.68;5.13;;;;;;;22.49;41.13;92984.06;4803437;29;20057;-75
2022/07/17 01:24:10;;;;;;;10.68;5.07;;;;;;;22.46;41.85;92977.56;4782680;29;20046;-74
2022/07/17 01:26:36;;;;;;;9.10;5.40;;;;;;;22.42;42.56;92985.47;4787196;29;20027;-74
2022/07/17 01:29:02;;;;;;;8.82;5.10;;;;;;;22.33;43.31;92981.44;4765412;30;20533;-74
2022/07/17 01:31:28;;;;;;;8.45;5.00;;;;;;;22.23;43.88;92991.53;4769344;30;20494;-74
2022/07/17 01:33:54;;;;;;;10.00;5.18;;;;;;;22.16;43.82;92987.91;4769279;30;20100;-74
2022/07/17 01:36:23;;;;;;;10.60;5.38;;;;;;;22.11;43.57;92986.28;4785456;29;20410;-74
2022/07/17 01:38:50;;;;;;;8.45;5.13;;;;;;;22.06;44.34;92989.19;4786363;29;20039;-75
2022/07/17 01:41:15;;;;;;;7.20;5.00;;;;;;;21.99;44.81;92997.78;4788641;30;20559;-74
2022/07/17 01:43:42;;;;;;;7.90;5.05;;;;;;;21.91;44.94;92988.09;4788808;30;20066;-75
2022/07/17 01:46:08;;;;;;;7.95;5.20;;;;;;;21.85;45.15;92991.38;4788989;29;20040;-74
2022/07/17 01:48:34;;;;;;;9.30;5.32;;;;;;;21.79;45.39;92988.94;4788611;30;20057;-74
2022/07/17 01:51:00;;;;;;;9.32;5.65;;;;;;;21.75;45.75;92992.63;4782751;30;20040;-74
2022/07/17 01:53:26;;;;;;;8.85;5.55;;;;;;;21.69;45.59;92994.78;4788419;30;20105;-74
2022/07/17 01:55:51;;;;;;;10.70;5.47;;;;;;;21.62;46.03;92995.38;4775565;29;20096;-74
2022/07/17 01:58:17;;;;;;;10.30;5.97;;;;;;;21.63;45.93;92993.50;4806365;29;20034;-74
2022/07/17 02:00:43;;;;;;;8.88;5.32;;;;;;;21.61;45.98;92993.06;4788848;29;20043;-75
2022/07/17 02:03:09;;;;;;;14.63;5.50;;;;;;;21.58;45.81;92993.75;4806492;29;20175;-74
2022/07/17 02:05:35;;;;;;;8.30;5.10;;;;;;;21.58;45.91;92999.09;4790061;29;20056;-74
2022/07/17 02:08:00;;;;;;;8.80;5.25;;;;;;;21.56;46.12;92998.66;4788223;29;20562;-74
2022/07/17 02:10:26;;;;;;;10.57;5.07;;;;;;;21.53;46.10;93005.44;4804622;29;20047;-74
2022/07/17 02:12:52;;;;;;;10.15;6.20;;;;;;;21.51;46.44;92999.66;4789720;29;20046;-75
2022/07/17 02:15:17;;;;;;;9.10;5.75;;;;;;;21.49;46.94;92995.81;4806046;29;20051;-74
2022/07/17 02:17:43;;;;;;;10.57;5.93;;;;;;;21.46;46.63;92997.28;4794434;29;20047;-74
2022/07/17 02:20:11;;;;;;;10.75;5.82;;;;;;;21.45;46.91;92995.69;4787824;30;20513;-74
2022/07/17 02:22:37;;;;;;;12.35;6.20;;;;;;;21.41;47.86;92997.50;4788821;29;20092;-74
2022/07/17 02:25:03;;;;;;;12.52;6.55;;;;;;;21.37;48.93;92992.06;4788125;30;20059;-75
2022/07/17 02:27:31;;;;;;;11.40;6.57;;;;;;;21.32;49.31;92992.31;4758888;29;20044;-74
2022/07/17 02:29:57;;;;;;;10.48;6.30;;;;;;;21.30;49.45;92996.41;4804780;29;20098;-74
2022/07/17 02:32:22;;;;;;;13.63;6.25;;;;;;;21.27;49.50;92997.09;4771422;30;20043;-74
2022/07/17 02:34:48;;;;;;;13.68;6.18;;;;;;;21.23;49.52;92988.25;4771662;30;20042;-75
2022/07/17 02:37:14;;;;;;;9.48;6.28;;;;;;;21.19;49.30;92994.25;4787140;29;20111;-74
2022/07/17 02:39:52;;;;;;;11.63;6.30;;;;;;;21.16;48.97;93000.25;4788564;29;20043;-74
2022/07/17 02:42:25;;;;;;;11.00;6.20;;;;;;;21.15;48.80;92992.63;4771468;30;20039;-74
2022/07/17 02:44:51;;;;;;;11.32;6.80;;;;;;;21.12;49.09;92998.59;4771508;30;20074;-75
2022/07/17 02:47:24;;;;;;;10.25;6.40;;;;;;;21.09;48.67;93005.38;4787362;30;20115;-74
2022/07/17 02:49:51;;;;;;;9.88;6.65;;;;;;;21.08;48.48;93011.06;4773381;29;20070;-74
2022/07/17 02:52:17;;;;;;;10.30;6.70;;;;;;;21.05;48.79;93006.41;4770699;30;20097;-74
2022/07/17 02:54:42;;;;;;;16.70;6.10;;;;;;;21.05;48.67;93017.81;4771372;30;20055;-75
2022/07/17 02:57:08;;;;;;;9.68;6.07;;;;;;;21.02;49.28;93012.41;4771201;30;20056;-74
2022/07/17 02:59:34;;;;;;;10.10;6.80;;;;;;;20.98;49.53;93014.94;4795346;29;20213;-74
2022/07/17 03:02:00;;;;;;;9.02;6.00;;;;;;;20.91;49.37;93015.53;4804508;29;20038;-74
2022/07/17 03:04:25;;;;;;;12.73;6.38;;;;;;;20.87;49.11;93017.31;4789004;29;20046;-74
2022/07/17 03:06:51;;;;;;;13.32;6.32;;;;;;;20.86;48.87;93017.66;4779752;29;20035;-74
2022/07/17 03:09:16;;;;;;;13.57;7.10;;;;;;;20.87;48.96;93017.31;4787788;29;20109;-74
2022/07/17 03:11:42;;;;;;;11.95;6.40;;;;;;;20.89;49.06;93022.31;4805210;29;20043;-74
2022/07/17 03:14:07;;;;;;;9.75;6.10;;;;;;;20.86;49.16;93023.75;4773903;29;20058;-74
2022/07/17 03:16:33;;;;;;;11.45;6.50;;;;;;;20.82;49.40;93028.19;4773787;29;20039;-74
2022/07/17 03:18:58;;;;;;;19.95;6.75;;;;;;;20.77;49.99;93036.41;4788687;29;20038;-74
2022/07/17 03:21:24;;;;;;;11.15;6.45;;;;;;;20.72;50.63;93029.44;4792347;29;20070;-74
2022/07/17 03:23:50;;;;;;;11.52;6.65;;;;;;;20.69;50.97;93037.31;4770929;30;20046;-74
2022/07/17 03:26:16;;;;;;;12.30;6.70;;;;;;;20.65;51.23;93037.22;4787124;30;20566;-74
2022/07/17 03:28:41;;;;;;;14.20;7.10;;;;;;;20.63;51.57;93041.34;4770868;30;20168;-74
2022/07/17 03:31:07;;;;;;;12.75;7.35;;;;;;;20.59;52.62;93047.31;4760781;30;20387;-74
2022/07/17 03:33:32;;;;;;;13.90;7.47;;;;;;;20.57;53.07;93046.09;4786714;30;20059;-74
2022/07/17 03:35:58;;;;;;;15.27;8.18;;;;;;;20.56;53.90;93052.50;4778770;29;20043;-74
2022/07/17 03:38:23;;;;;;;15.20;7.82;;;;;;;20.53;54.48;93048.59;4804835;29;20564;-75
2022/07/17 03:40:49;;;;;;;11.38;7.80;;;;;;;20.49;54.93;93052.25;4803709;29;20047;-74
2022/07/17 03:43:15;;;;;;;11.88;7.78;;;;;;;20.46;55.19;93058.25;4788065;29;20074;-74
2022/07/17 03:45:41;;;;;;;11.20;7.43;;;;;;;20.42;55.58;93057.38;4788425;29;20498;-74
2022/07/17 03:48:08;;;;;;;14.07;8.82;;;;;;;20.39;56.21;93059.59;4804386;29;20053;-74
2022/07/17 03:50:33;;;;;;;13.82;8.30;;;;;;;20.38;56.68;93062.59;4780518;30;20114;-74
2022/07/17 03:52:59;;;;;;;12.57;8.18;;;;;;;20.38;56.68;93060.69;4787425;29;20122;-74
2022/07/17 03:55:24;;;;;;;14.25;8.00;;;;;;;20.37;56.78;93061.03;4770326;30;20491;-74
2022/07/17 03:57:50;;;;;;;15.55;8.38;;;;;;;20.39;56.67;93067.56;4786428;30;20045;-74
2022/07/17 04:00:17;;;;;;;16.02;8.10;;;;;;;20.39;57.09;93066.78;4770413;30;20043;-74
2022/07/17 04:02:43;;;;;;;13.30;8.18;;;;;;;20.38;57.53;93078.53;4770940;30;20472;-74
2022/07/17 04:05:09;;;;;;;14.77;8.57;;;;;;;20.34;57.70;93073.09;4770591;29;20035;-74
2022/07/17 04:07:38;;;;;;;12.23;8.27;;;;;;;20.33;57.58;93071.56;4798573;29;20057;-74
2022/07/17 04:10:05;;;;;;;12.30;7.95;;;;;;;20.36;57.68;93078.09;4814365;29;20070;-74
2022/07/17 04:12:32;;;;;;;16.60;8.45;;;;;;;20.37;57.62;93079.63;4804164;29;20039;-74
2022/07/17 04:14:57;;;;;;;13.23;7.75;;;;;;;20.36;57.46;93083.41;4813488;29;20483;-74
2022/07/17 04:17:23;;;;;;;12.15;8.05;;;;;;;20.36;57.38;93081.53;4780198;29;20054;-74
2022/07/17 04:19:49;;;;;;;10.68;7.70;;;;;;;20.38;57.43;93089.94;4769521;30;20093;-74
2022/07/17 04:22:15;;;;;;;11.05;7.75;;;;;;;20.42;57.42;93097.25;4771511;29;20422;-74
2022/07/17 04:24:41;;;;;;;15.27;8.02;;;;;;;20.43;58.08;93091.59;4782446;29;20081;-76
2022/07/17 04:27:07;;;;;;;14.73;8.98;;;;;;;20.47;57.91;93097.81;4777893;29;20070;-77
2022/07/17 04:29:33;;;;;;;13.10;8.15;;;;;;;20.51;57.92;93098.72;4772969;30;20104;-77
2022/07/17 04:31:58;;;;;;;18.42;8.57;;;;;;;20.57;58.17;93102.72;4802110;29;20038;-77
2022/07/17 04:34:24;;;;;;;20.42;8.75;;;;;;;20.65;58.67;93103.72;4770456;29;20047;-77
2022/07/17 04:36:50;;;;;;;15.50;8.57;;;;;;;20.68;58.57;93104.94;4776362;29;20086;-76
2022/07/17 04:39:16;;;;;;;18.15;9.25;;;;;;;20.74;58.21;93114.25;4786850;29;20043;-77
2022/07/17 04:41:42;;;;;;;12.20;7.28;;;;;;;20.80;58.05;93104.91;4800009;29;20417;-77
2022/07/17 04:44:07;;;;;;;12.60;8.10;;;;;;;20.90;58.01;93114.34;4803473;29;20463;-77
2022/07/17 04:46:33;;;;;;;16.52;8.43;;;;;;;20.98;58.16;93108.88;4799642;29;20069;-77
2022/07/17 04:48:58;;;;;;;13.25;8.45;;;;;;;21.08;58.04;93114.84;4774262;30;20044;-76
2022/07/17 04:51:24;;;;;;;12.90;8.13;;;;;;;21.19;57.68;93119.38;4786818;30;20062;-77
2022/07/17 04:53:49;;;;;;;13.23;8.57;;;;;;;21.32;58.13;93114.00;4779023;29;20083;-77
2022/07/17 04:56:15;;;;;;;13.27;9.02;;;;;;;21.44;58.82;93121.22;4801993;29;20119;-77
2022/07/17 04:58:41;;;;;;;16.67;8.73;;;;;;;21.53;59.03;93119.19;4773599;29;20067;-77
2022/07/17 05:01:06;;;;;;;15.15;8.82;;;;;;;21.67;58.79;93118.81;4770744;30;20058;-77
2022/07/17 05:03:32;;;;;;;12.40;8.13;;;;;;;21.78;59.27;93127.84;4786942;30;20044;-77
2022/07/17 05:05:57;;;;;;;15.25;8.68;;;;;;;21.87;59.06;93125.03;4786955;30;20035;-77
2022/07/17 05:08:23;;;;;;;16.67;8.88;;;;;;;21.94;58.87;93125.22;4774142;29;20027;-77
2022/07/17 05:10:48;;;;;;;17.27;8.55;;;;;;;21.98;59.11;93128.75;4788246;29;20050;-77
2022/07/17 05:13:14;;;;;;;16.00;9.07;;;;;;;22.06;60.24;93130.47;4773030;29;20039;-77
2022/07/17 05:15:40;;;;;;;16.42;9.32;;;;;;;22.12;60.43;93134.44;4797355;29;20114;-77
2022/07/17 05:18:05;;;;;;;17.60;9.65;;;;;;;22.19;61.25;93133.84;4798797;29;20070;-77
2022/07/17 05:20:31;;;;;;;15.32;9.13;;;;;;;22.23;61.30;93135.53;4784597;29;20071;-77
2022/07/17 05:22:57;;;;;;;15.32;9.25;;;;;;;22.29;62.42;93138.72;4825599;29;20450;-77
2022/07/17 05:25:22;;;;;;;14.95;9.18;;;;;;;22.34;62.31;93145.69;4810423;29;20050;-77
2022/07/17 05:27:48;;;;;;;15.13;9.07;;;;;;;22.37;62.78;93139.66;4797577;29;20066;-77
2022/07/17 05:30:14;;;;;;;12.48;8.93;;;;;;;22.42;62.71;93155.41;4790539;29;20117;-78
2022/07/17 05:32:39;;;;;;;12.65;9.43;;;;;;;22.49;62.82;93152.13;4794750;29;20051;-77
2022/07/17 05:35:05;;;;;;;15.93;9.48;;;;;;;22.56;64.17;93150.44;4777113;29;20059;-77
2022/07/17 05:37:31;;;;;;;18.75;9.63;;;;;;;22.62;63.43;93146.34;4775231;29;20130;-76
2022/07/17 05:39:56;;;;;;;14.70;9.57;;;;;;;22.67;63.03;93148.00;4774401;30;20046;-77
2022/07/17 05:42:22;;;;;;;12.02;9.13;;;;;;;22.73;62.00;93161.84;4773872;30;20051;-77
2022/07/17 05:44:48;;;;;;;17.75;9.38;;;;;;;22.81;61.99;93159.00;4792307;29;20037;-77
2022/07/17 05:47:13;;;;;;;15.60;8.50;;;;;;;22.87;59.65;93162.19;4802256;29;20126;-77
2022/07/17 05:49:39;;;;;;;13.57;9.23;;;;;;;22.84;57.99;93163.66;4764883;29;20049;-77
2022/07/17 05:52:05;;;;;;;18.42;8.82;;;;;;;22.80;58.94;93168.13;4794469;29;20069;-77
2022/07/17 05:54:32;;;;;;;18.80;8.65;;;;;;;22.83;54.98;93167.44;4791361;29;20039;-77
2022/07/17 05:56:59;;;;;;;14.43;8.60;;;;;;;22.83;54.35;93167.44;4807173;29;20099;-78
2022/07/17 05:59:24;;;;;;;12.50;7.80;;;;;;;22.83;53.78;93172.00;4761901;29;20050;-77
2022/07/17 06:01:50;;;;;;;12.15;8.30;;;;;;;22.83;52.39;93175.47;4777484;30;20593;-77
2022/07/17 06:04:15;;;;;;;21.17;8.80;;;;;;;22.84;53.15;93182.34;4773806;29;20065;-76
2022/07/17 06:06:41;;;;;;;16.27;8.95;;;;;;;22.87;55.99;93172.84;4804973;29;20073;-77
2022/07/17 06:09:06;;;;;;;14.07;8.88;;;;;;;22.90;56.93;93180.19;4764883;29;20043;-77
2022/07/17 06:11:32;;;;;;;19.35;8.77;;;;;;;22.97;57.30;93188.34;4794655;29;20426;-77
2022/07/17 06:13:58;;;;;;;20.50;9.55;;;;;;;23.04;60.30;93180.53;4787169;29;20065;-77
2022/07/17 06:16:23;;;;;;;14.95;9.68;;;;;;;23.14;61.26;93181.13;4779162;29;20051;-77
2022/07/17 06:18:49;;;;;;;14.02;9.57;;;;;;;23.18;61.08;93179.31;4803986;29;20129;-77
2022/07/17 06:21:15;;;;;;;14.75;9.45;;;;;;;23.22;61.53;93186.28;4768563;30;20059;-77
2022/07/17 06:23:40;;;;;;;14.40;9.50;;;;;;;23.24;62.14;93193.94;4789273;29;20122;-76
2022/07/17 06:26:06;;;;;;;15.77;9.48;;;;;;;23.29;61.22;93196.34;4790401;29;20051;-78
2022/07/17 06:28:32;;;;;;;17.13;9.10;;;;;;;23.33;60.37;93196.41;4803103;29;20031;-76
2022/07/17 06:30:57;;;;;;;17.90;9.38;;;;;;;23.39;59.65;93198.44;4794772;29;20122;-78
2022/07/17 06:33:23;;;;;;;14.93;9.13;;;;;;;23.52;57.09;93201.78;4800047;29;20092;-78
2022/07/17 06:35:48;;;;;;;17.17;9.32;;;;;;;23.52;58.09;93201.78;4803460;29;20043;-80
2022/07/17 06:38:14;;;;;;;17.73;10.50;;;;;;;23.62;58.10;93211.94;4795826;29;20127;-78
2022/07/17 06:40:39;;;;;;;19.70;9.27;;;;;;;23.70;58.76;93212.84;4804645;29;20076;-78
2022/07/17 06:43:06;;;;;;;15.70;10.00;;;;;;;23.79;58.25;93215.34;4777239;29;20035;-78
2022/07/17 06:45:32;;;;;;;18.48;8.95;;;;;;;23.89;57.84;93210.22;4793292;29;20121;-78
2022/07/17 06:47:58;;;;;;;14.27;8.38;;;;;;;23.90;50.86;93209.09;4797487;29;20074;-77
2022/07/17 06:50:24;;;;;;;14.73;8.40;;;;;;;23.84;51.38;93213.16;4786708;29;20320;-79
2022/07/17 06:52:49;;;;;;;15.23;8.85;;;;;;;23.77;50.99;93215.69;4799583;29;20068;-78
2022/07/17 06:55:15;;;;;;;16.92;8.85;;;;;;;23.83;50.24;93230.34;4804571;29;20042;-78
2022/07/17 06:57:40;;;;;;;16.02;8.27;;;;;;;23.85;49.95;93233.44;4796784;29;20034;-78
2022/07/17 07:00:08;;;;;;;14.13;8.55;;;;;;;23.91;50.82;93220.53;4799116;29;20414;-79
2022/07/17 07:02:35;;;;;;;16.75;9.02;;;;;;;24.06;52.96;93229.63;4785070;29;20039;-79
2022/07/17 07:05:00;;;;;;;15.68;9.05;;;;;;;24.16;51.23;93237.09;4793474;29;20047;-78
2022/07/17 07:07:26;;;;;;;18.35;9.32;;;;;;;24.32;51.58;93237.00;4773795;29;20031;-79
2022/07/17 07:09:51;;;;;;;14.75;8.98;;;;;;;24.39;51.37;93239.06;4763375;30;20490;-77
2022/07/17 07:12:17;;;;;;;17.00;9.23;;;;;;;24.55;51.88;93239.75;4772027;29;20122;-76
2022/07/17 07:14:43;;;;;;;20.80;9.05;;;;;;;24.64;49.89;93245.66;4772905;29;20053;-77
2022/07/17 07:17:09;;;;;;;19.02;9.95;;;;;;;24.65;50.24;93244.50;4773246;29;20043;-77
2022/07/17 07:19:34;;;;;;;15.52;9.27;;;;;;;24.77;49.59;93253.50;4776230;29;20043;-77
2022/07/17 07:22:00;;;;;;;13.55;9.00;;;;;;;24.75;50.47;93253.09;4771676;30;20503;-77
2022/07/17 07:24:25;;;;;;;20.00;8.88;;;;;;;24.71;52.39;93259.16;4781734;29;20099;-79
2022/07/17 07:26:51;;;;;;;15.88;9.30;;;;;;;24.49;54.50;93257.22;4774512;29;20063;-77
2022/07/17 07:29:16;;;;;;;14.90;9.25;;;;;;;24.20;55.65;93255.88;4765719;29;20130;-77
2022/07/17 07:31:42;;;;;;;17.05;10.07;;;;;;;24.04;56.92;93270.09;4748316;29;20065;-77
2022/07/17 07:34:08;;;;;;;17.63;10.52;;;;;;;24.13;56.71;93263.78;4786019;29;20042;-77
2022/07/17 07:36:33;;;;;;;19.33;10.63;;;;;;;24.14;56.26;93274.13;4775337;29;20418;-77
2022/07/17 07:38:59;;;;;;;16.45;10.45;;;;;;;24.11;56.66;93274.81;4766879;29;20543;-77
2022/07/17 07:41:25;;;;;;;18.60;10.13;;;;;;;23.88;56.81;93272.06;4768097;30;20498;-77
2022/07/17 07:43:50;;;;;;;21.77;11.40;;;;;;;23.67;58.60;93272.34;4770439;29;20053;-77
2022/07/17 07:46:16;;;;;;;16.50;10.95;;;;;;;23.87;58.54;93268.63;4771323;30;20041;-77
2022/07/17 07:48:41;;;;;;;20.48;11.38;;;;;;;23.74;58.50;93275.16;4771417;30;20032;-77
2022/07/17 07:51:07;;;;;;;19.67;11.65;;;;;;;23.54;59.32;93273.59;4817115;29;20052;-77
2022/07/17 07:53:33;;;;;;;19.80;11.43;;;;;;;23.58;59.46;93274.44;4784022;29;20047;-76
2022/07/17 07:55:58;;;;;;;23.33;12.15;;;;;;;23.78;59.27;93273.38;4780564;29;20031;-77
2022/07/17 07:58:24;;;;;;;18.30;10.40;;;;;;;23.88;59.43;93272.81;4805506;29;20066;-77
2022/07/17 08:00:49;;;;;;;15.48;10.77;;;;;;;23.89;58.37;93281.63;4790725;29;20054;-77
2022/07/17 08:03:15;;;;;;;21.40;11.43;;;;;;;24.07;56.26;93277.44;4780287;29;20404;-77
2022/07/17 08:05:42;;;;;;;16.58;11.65;;;;;;;24.50;55.72;93280.97;4797781;29;20402;-77
2022/07/17 08:08:08;;;;;;;18.33;10.50;;;;;;;24.82;54.75;93275.41;4774903;29;20045;-77
2022/07/17 08:10:34;;;;;;;18.13;10.50;;;;;;;25.28;53.68;93278.09;4797085;29;20494;-77
2022/07/17 08:13:00;;;;;;;19.23;11.57;;;;;;;25.53;53.27;93275.81;4790421;29;20827;-76
2022/07/17 08:15:26;;;;;;;17.55;11.00;;;;;;;25.82;53.19;93276.19;4772408;29;20042;-77
2022/07/17 08:17:52;;;;;;;23.70;11.05;;;;;;;25.77;51.90;93279.19;4757020;30;20421;-77
2022/07/17 08:20:20;;;;;;;24.88;11.15;;;;;;;25.61;53.37;93281.25;4770369;29;20498;-77
2022/07/17 08:22:47;;;;;;;20.85;11.80;;;;;;;25.47;53.02;93282.59;4792941;29;20065;-77
2022/07/17 08:25:13;;;;;;;17.48;11.73;;;;;;;25.09;53.14;93294.97;4795188;29;20034;-77
2022/07/17 08:27:40;;;;;;;23.65;12.00;;;;;;;24.83;53.48;93276.94;4767575;29;20054;-77
2022/07/17 08:30:07;;;;;;;22.10;12.07;;;;;;;24.99;55.18;93284.09;4797224;29;20047;-77
2022/07/17 08:32:33;;;;;;;22.77;12.23;;;;;;;25.19;53.18;93282.16;4769552;29;20137;-77
2022/07/17 08:34:59;;;;;;;26.60;12.80;;;;;;;25.66;52.63;93294.34;4799159;29;20733;-77
2022/07/17 08:37:25;;;;;;;24.05;12.50;;;;;;;25.80;52.42;93297.22;4794600;29;20421;-77
2022/07/17 08:39:51;;;;;;;19.33;11.77;;;;;;;25.98;52.15;93289.44;4773161;29;20063;-77
2022/07/17 08:42:16;;;;;;;20.65;11.70;;;;;;;26.23;51.40;93295.16;4771925;29;20054;-77
2022/07/17 08:44:43;;;;;;;20.13;12.18;;;;;;;26.59;51.43;93298.25;4790739;29;20497;-77
2022/07/17 08:47:11;;;;;;;23.55;12.55;;;;;;;26.66;49.60;93300.22;4800026;29;20035;-77
2022/07/17 08:49:43;;;;;;;17.77;11.45;;;;;;;26.83;49.44;93294.28;4790495;29;20427;-77
2022/07/17 08:52:13;;;;;;;23.83;12.80;;;;;;;26.68;49.89;93304.13;4795677;29;20031;-77
2022/07/17 08:54:39;;;;;;;23.63;11.93;;;;;;;26.67;49.58;93294.50;4809159;29;20046;-77
2022/07/17 08:57:05;;;;;;;24.60;14.10;;;;;;;26.88;49.56;93298.53;4802772;29;20026;-77
2022/07/17 08:59:31;;;;;;;23.30;14.40;;;;;;;26.81;49.85;93307.31;4805918;29;20034;-77
2022/07/17 09:02:00;;;;;;;23.17;13.90;;;;;;;27.10;49.25;93311.03;4784648;29;20037;-77
2022/07/17 09:04:25;;;;;;;25.75;14.27;;;;;;;27.28;48.79;93313.91;4776805;29;20038;-77
2022/07/17 09:07:02;;;;;;;31.58;13.93;;;;;;;27.32;48.86;93313.94;4777451;29;20035;-78
2022/07/17 09:09:28;;;;;;;24.80;14.80;;;;;;;27.49;48.57;93320.59;4800016;29;20058;-78
2022/07/17 09:11:55;;;;;;;27.52;13.73;;;;;;;27.74;47.97;93318.09;4821482;29;20035;-78
2022/07/17 09:14:21;;;;;;;26.35;13.88;;;;;;;27.47;47.82;93310.25;4788439;29;20034;-77
2022/07/17 09:16:55;;;;;;;25.17;15.27;;;;;;;27.18;48.62;93318.03;4794099;29;20039;-77
2022/07/17 09:19:27;;;;;;;29.92;15.55;;;;;;;26.94;48.88;93315.88;4794390;29;20169;-81
2022/07/17 09:22:06;;;;;;;25.23;16.25;;;;;;;26.68;49.40;93314.88;4814136;29;20062;-79
2022/07/17 09:24:56;;;;;;;27.00;15.18;;;;;;;26.56;49.98;93312.41;4789147;29;20038;-76
2022/07/17 09:27:24;;;;;;;30.63;16.75;;;;;;;26.58;49.86;93308.22;4794229;29;20092;-78
2022/07/17 09:30:12;;;;;;;23.25;14.98;;;;;;;26.95;49.80;93320.09;4758642;29;20384;-77
2022/07/17 09:32:41;;;;;;;27.55;15.25;;;;;;;27.54;48.77;93314.91;4787301;29;20090;-77
2022/07/17 09:35:09;;;;;;;27.17;15.88;;;;;;;27.76;47.80;93308.53;4774475;29;20039;-77
2022/07/17 09:37:36;;;;;;;21.73;14.88;;;;;;;27.69;48.05;93311.13;4774100;30;20051;-76
2022/07/17 09:40:10;;;;;;;36.10;16.58;;;;;;;27.48;48.44;93305.63;4796664;29;20310;-79
2022/07/17 09:42:35;;;;;;;40.58;18.67;;;;;;;27.61;47.72;93312.25;4798814;29;20035;-76
2022/07/17 09:45:08;;;;;;;27.67;15.90;;;;;;;27.81;47.48;93310.84;4784920;29;20041;-76
2022/07/17 09:47:36;;;;;;;25.75;15.55;;;;;;;28.14;48.18;93319.13;4800620;29;20498;-78
2022/07/17 09:50:04;;;;;;;36.22;17.13;;;;;;;28.22;46.96;93315.34;4791248;29;20035;-76
2022/07/17 09:52:33;;;;;;;26.50;16.35;;;;;;;28.20;46.81;93306.88;4770328;29;20043;-76
2022/07/17 09:55:00;;;;;;;25.17;16.98;;;;;;;28.02;46.47;93302.16;4778777;29;20133;-77
2022/07/17 09:57:29;;;;;;;25.70;16.85;;;;;;;27.93;47.48;93304.41;4754278;29;22433;-77
2022/07/17 10:00:00;;;;;;;24.08;16.52;;;;;;;27.99;47.61;93300.22;4788537;29;20544;-77
2022/07/17 10:02:25;;;;;;;33.20;16.73;;;;;;;28.37;46.96;93303.47;4794640;29;20073;-77
2022/07/17 10:04:52;;;;;;;25.30;16.85;;;;;;;28.32;47.42;93303.81;4796457;29;20149;-77
2022/07/17 10:07:19;;;;;;;28.48;17.65;;;;;;;28.63;45.60;93307.06;4782797;29;20043;-77
2022/07/17 10:09:46;;;;;;;28.65;15.98;;;;;;;28.70;46.75;93304.38;4802228;29;20045;-78
2022/07/17 10:12:13;;;;;;;25.50;16.48;;;;;;;28.52;47.25;93295.47;4783858;30;20112;-78
2022/07/17 10:14:41;;;;;;;24.85;15.57;;;;;;;27.80;48.79;93295.06;4787288;29;20043;-77
2022/07/17 10:17:11;;;;;;;20.85;14.80;;;;;;;27.45;49.16;93295.59;4792203;29;20505;-77
2022/07/17 10:19:47;;;;;;;30.85;17.30;;;;;;;27.29;48.98;93298.56;4794195;29;20094;-78
2022/07/17 10:22:13;;;;;;;33.08;18.13;;;;;;;27.37;49.72;93294.78;4791843;29;20051;-77
2022/07/17 10:24:47;;;;;;;31.13;18.30;;;;;;;27.28;48.94;93302.38;4796363;29;20058;-77
2022/07/17 10:27:26;;;;;;;29.27;19.08;;;;;;;27.12;48.73;93289.94;4797825;29;20155;-77
2022/07/17 10:30:13;;;;;;;30.90;18.27;;;;;;;27.39;48.29;93290.56;4793696;29;20133;-75
2022/07/17 10:32:39;;;;;;;28.67;16.02;;;;;;;27.59;48.68;93291.09;4775767;29;20039;-77
2022/07/17 10:35:07;;;;;;;26.80;16.27;;;;;;;27.95;47.68;93290.59;4775205;29;20566;-77
2022/07/17 10:37:35;;;;;;;28.48;17.05;;;;;;;27.75;47.61;93282.00;4772752;30;20071;-76
2022/07/17 10:40:12;;;;;;;32.95;18.08;;;;;;;27.25;49.03;93279.72;4786176;29;20427;-77
2022/07/17 10:42:51;;;;;;;29.05;17.73;;;;;;;27.36;48.47;93282.50;4774235;29;20508;-77
2022/07/17 10:45:19;;;;;;;28.95;17.85;;;;;;;27.28;49.29;93280.88;4806441;29;20095;-77
2022/07/17 10:47:52;;;;;;;28.13;17.83;;;;;;;27.40;48.17;93285.97;4801069;29;20417;-77
2022/07/17 10:50:24;;;;;;;24.63;15.90;;;;;;;27.58;47.14;93283.41;4797066;29;20085;-77
2022/07/17 10:53:20;;;;;;;26.60;17.42;;;;;;;27.48;48.33;93279.50;4760381;29;20395;-77
2022/07/17 10:55:48;;;;;;;25.27;17.83;;;;;;;27.32;48.52;93287.06;4769333;29;20047;-77
2022/07/17 10:58:20;;;;;;;25.95;17.80;;;;;;;27.22;48.88;93280.44;4787349;29;20083;-77
2022/07/17 11:01:15;;;;;;;;;;;;;;;27.16;49.13;93282.69;4787182;29;20074;-76
2022/07/17 11:03:50;;;;;;;30.50;16.67;;;;;;;27.35;48.95;93280.94;4769655;29;19923;-76
2022/07/17 11:06:27;;;;;;;33.75;18.08;;;;;;;27.41;48.65;93282.16;4757067;29;20035;-77
2022/07/17 11:08:56;;;;;;;30.92;16.40;;;;;;;27.31;49.24;93286.31;4778493;29;20047;-77
2022/07/17 11:11:49;;;;;;;31.00;17.05;;;;;;;27.24;48.26;93286.22;4791226;29;20587;-77
2022/07/17 11:14:17;;;;;;;32.42;18.23;;;;;;;26.76;49.75;93275.41;4798672;29;20423;-77
2022/07/17 11:16:50;;;;;;;29.17;18.77;;;;;;;27.17;49.23;93270.03;4790589;29;20042;-77
2022/07/17 11:19:39;;;;;;;27.08;17.55;;;;;;;27.30;48.24;93274.00;4771272;30;20089;-77
2022/07/17 11:22:09;;;;;;;29.15;17.13;;;;;;;27.24;48.28;93269.34;4764259;30;20055;-77
2022/07/17 11:24:42;;;;;;;27.63;17.13;;;;;;;27.12;48.89;93267.69;4771119;30;20043;-77